Terminal Aerodrome Forecast
Issued by NWS

Home | Current Version | Previous Version | Text Only | Print | Product List | Glossary On
Versions: 1 2 3 4 5 6 7 8 9 10 11 12 13
000
FTUS43 KPAH 260520
TAFOWB
TAF
KOWB 260520Z 2606/2706 20004KT P6SM BKN200
     FM261100 22005KT P6SM BKN090
     FM261700 22005KT P6SM SCT030 BKN070 PROB30 2617/2623 4SM -TSRA
      BKN025CB
     FM270000 VRB03KT P6SM BKN200=

USA.gov is the U.S. government's official web portal to all federal, state and local government web resources and services.